Time;durP1;ratioP1;P1;durP2;ratioP2;P2;SDS_P1;SDS_P2;PMS_P1;PMS_P2;Temp;Humidity;BMP_temperature;BMP_pressure;BME280_temperature;BME280_humidity;BME280_pressure;Samples;Min_cycle;Max_cycle;Signal;HPM_P1;HPM_P2
2021/04/17 00:00:28;;;;;;;11.13;6.93;;;;;;;;;;5072286;28;20201;-64
2021/04/17 00:02:55;;;;;;;8.53;7.20;;;;;;;;;;5071990;28;20455;-64
2021/04/17 00:05:22;;;;;;;10.00;7.40;;;;;;;;;;5071523;28;20466;-64
2021/04/17 00:07:49;;;;;;;11.30;7.50;;;;;;;;;;5071974;28;20861;-64
2021/04/17 00:10:16;;;;;;;12.73;7.83;;;;;;;;;;5072207;28;20451;-64
2021/04/17 00:12:43;;;;;;;10.83;7.77;;;;;;;;;;5071916;28;20474;-64
2021/04/17 00:15:10;;;;;;;9.27;7.33;;;;;;;;;;5071717;28;20467;-63
2021/04/17 00:17:37;;;;;;;11.60;6.87;;;;;;;;;;5071891;28;20443;-63
2021/04/17 00:20:04;;;;;;;10.47;7.47;;;;;;;;;;5071558;28;20447;-63
2021/04/17 00:22:31;;;;;;;11.47;7.40;;;;;;;;;;5072201;28;20828;-64
2021/04/17 00:24:57;;;;;;;10.43;6.30;;;;;;;;;;5071399;28;20988;-63
2021/04/17 00:27:24;;;;;;;7.20;5.30;;;;;;;;;;5071822;28;20475;-63
2021/04/17 00:29:51;;;;;;;9.00;6.10;;;;;;;;;;5071556;28;20443;-64
2021/04/17 00:32:18;;;;;;;9.17;6.60;;;;;;;;;;5071773;28;20446;-64
2021/04/17 00:34:44;;;;;;;8.40;5.97;;;;;;;;;;5071279;28;20482;-63
2021/04/17 00:37:11;;;;;;;8.17;6.30;;;;;;;;;;5071991;28;20444;-64
2021/04/17 00:39:38;;;;;;;9.73;6.07;;;;;;;;;;5071801;28;20447;-63
2021/04/17 00:42:05;;;;;;;8.00;5.40;;;;;;;;;;5071501;28;20455;-63
2021/04/17 00:44:33;;;;;;;10.50;6.63;;;;;;;;;;5072194;28;20845;-64
2021/04/17 00:47:00;;;;;;;7.67;5.50;;;;;;;;;;5072554;28;20491;-64
2021/04/17 00:49:27;;;;;;;7.47;5.17;;;;;;;;;;5074512;28;20500;-63
2021/04/17 00:51:53;;;;;;;7.87;5.10;;;;;;;;;;5075792;28;20451;-64
2021/04/17 00:54:20;;;;;;;6.80;5.30;;;;;;;;;;5075696;28;20470;-63
2021/04/17 00:56:47;;;;;;;7.17;4.53;;;;;;;;;;5076106;28;20439;-64
2021/04/17 00:59:13;;;;;;;7.07;4.70;;;;;;;;;;5075630;28;20451;-63
2021/04/17 01:01:40;;;;;;;8.40;5.73;;;;;;;;;;5075402;28;20458;-64
2021/04/17 01:04:11;;;;;;;8.23;5.73;;;;;;;;;;5075072;28;20475;-63
2021/04/17 01:06:40;;;;;;;6.77;5.40;;;;;;;;;;5075646;28;20945;-64
2021/04/17 01:09:08;;;;;;;10.60;5.50;;;;;;;;;;5075414;28;20461;-63
2021/04/17 01:11:37;;;;;;;7.50;5.53;;;;;;;;;;5075403;28;20443;-63
2021/04/17 01:14:04;;;;;;;8.20;4.87;;;;;;;;;;5074440;28;20470;-63
2021/04/17 01:16:32;;;;;;;7.23;5.23;;;;;;;;;;5075483;28;20819;-63
2021/04/17 01:18:58;;;;;;;10.47;5.43;;;;;;;;;;5075215;28;20443;-64
2021/04/17 01:21:26;;;;;;;9.43;5.83;;;;;;;;;;5075388;28;20447;-63
2021/04/17 01:23:55;;;;;;;11.23;5.93;;;;;;;;;;5074791;28;20467;-63
2021/04/17 01:26:25;;;;;;;12.73;5.90;;;;;;;;;;5075077;28;20489;-64
2021/04/17 01:28:52;;;;;;;12.00;6.07;;;;;;;;;;5074987;28;20451;-64
2021/04/17 01:31:20;;;;;;;9.93;5.20;;;;;;;;;;5075100;28;20915;-64
2021/04/17 01:33:50;;;;;;;6.80;4.90;;;;;;;;;;5074764;28;20528;-63
2021/04/17 01:36:17;;;;;;;10.67;5.00;;;;;;;;;;5074930;28;20801;-64
2021/04/17 01:38:45;;;;;;;8.03;5.13;;;;;;;;;;5074798;28;21001;-63
2021/04/17 01:41:13;;;;;;;12.33;5.73;;;;;;;;;;5074007;28;20873;-63
2021/04/17 01:43:42;;;;;;;8.80;5.73;;;;;;;;;;5073619;28;20467;-63
2021/04/17 01:46:09;;;;;;;8.20;5.07;;;;;;;;;;5073226;28;21062;-64
2021/04/17 01:48:36;;;;;;;6.73;4.33;;;;;;;;;;5073626;28;20447;-64
2021/04/17 01:51:03;;;;;;;8.17;5.33;;;;;;;;;;5073385;28;20443;-63
2021/04/17 01:53:31;;;;;;;6.47;5.20;;;;;;;;;;5073260;28;20471;-63
2021/04/17 01:55:58;;;;;;;7.63;4.80;;;;;;;;;;5073095;28;20443;-63
2021/04/17 01:58:26;;;;;;;11.23;5.20;;;;;;;;;;5073497;28;20466;-63
2021/04/17 02:00:54;;;;;;;6.70;4.87;;;;;;;;;;5073144;28;20454;-63
2021/04/17 02:03:21;;;;;;;7.67;5.43;;;;;;;;;;5073145;28;20471;-63
2021/04/17 02:05:48;;;;;;;8.33;5.33;;;;;;;;;;5073036;28;20450;-63
2021/04/17 02:08:15;;;;;;;6.50;4.83;;;;;;;;;;5072799;28;20825;-63
2021/04/17 02:10:41;;;;;;;9.67;5.10;;;;;;;;;;5073210;28;20444;-63
2021/04/17 02:13:08;;;;;;;8.30;4.80;;;;;;;;;;5073127;28;20443;-63
2021/04/17 02:15:35;;;;;;;7.97;4.70;;;;;;;;;;5072622;28;20457;-64
2021/04/17 02:18:06;;;;;;;9.93;5.67;;;;;;;;;;5073103;28;20443;-64
2021/04/17 02:20:34;;;;;;;8.70;5.20;;;;;;;;;;5072652;28;20458;-63
2021/04/17 02:23:01;;;;;;;7.00;5.27;;;;;;;;;;5072329;28;20442;-63
2021/04/17 02:25:28;;;;;;;6.90;5.23;;;;;;;;;;5072534;28;20509;-64
2021/04/17 02:27:55;;;;;;;7.90;5.40;;;;;;;;;;5072859;28;20920;-63
2021/04/17 02:30:21;;;;;;;6.53;5.03;;;;;;;;;;5072542;28;20459;-63
2021/04/17 02:32:48;;;;;;;8.27;6.00;;;;;;;;;;5072977;28;20446;-63
2021/04/17 02:35:16;;;;;;;9.67;5.70;;;;;;;;;;5072594;28;20466;-63
2021/04/17 02:37:43;;;;;;;9.70;4.87;;;;;;;;;;5072402;28;20436;-64
2021/04/17 02:40:10;;;;;;;6.90;4.80;;;;;;;;;;5053557;28;543717;-64
2021/04/17 02:42:37;;;;;;;7.63;5.53;;;;;;;;;;5073554;28;20458;-63
2021/04/17 02:45:04;;;;;;;13.10;5.73;;;;;;;;;;5073663;28;20465;-63
2021/04/17 02:47:30;;;;;;;9.03;5.63;;;;;;;;;;5073456;28;20493;-63
2021/04/17 02:49:57;;;;;;;15.27;5.97;;;;;;;;;;5073170;28;20960;-63
2021/04/17 02:52:24;;;;;;;8.27;5.27;;;;;;;;;;5073453;28;20454;-64
2021/04/17 02:54:51;;;;;;;8.70;5.57;;;;;;;;;;5073020;28;20483;-63
2021/04/17 02:57:17;;;;;;;7.10;5.07;;;;;;;;;;5073420;28;20447;-63
2021/04/17 02:59:44;;;;;;;11.27;5.67;;;;;;;;;;5073095;28;20451;-64
2021/04/17 03:02:10;;;;;;;9.20;5.70;;;;;;;;;;5073350;28;20454;-64
2021/04/17 03:04:37;;;;;;;8.03;4.80;;;;;;;;;;5072469;28;20467;-64
2021/04/17 03:07:03;;;;;;;9.07;5.00;;;;;;;;;;5073224;28;20483;-63
2021/04/17 03:09:31;;;;;;;7.77;6.13;;;;;;;;;;5073182;28;20457;-63
2021/04/17 03:11:57;;;;;;;6.93;5.67;;;;;;;;;;5072506;28;20447;-63
2021/04/17 03:14:24;;;;;;;8.37;6.10;;;;;;;;;;5072755;28;20536;-63
2021/04/17 03:16:51;;;;;;;10.37;5.87;;;;;;;;;;5072730;28;20492;-63
2021/04/17 03:19:17;;;;;;;12.30;6.17;;;;;;;;;;5072933;28;20924;-63
2021/04/17 03:21:44;;;;;;;13.63;5.87;;;;;;;;;;5072839;28;20450;-63
2021/04/17 03:24:10;;;;;;;8.53;5.43;;;;;;;;;;5072712;28;20480;-64
2021/04/17 03:26:38;;;;;;;9.33;5.03;;;;;;;;;;5072680;28;20481;-63
2021/04/17 03:29:04;;;;;;;10.63;5.77;;;;;;;;;;5072744;28;20516;-64
2021/04/17 03:31:31;;;;;;;8.53;5.67;;;;;;;;;;5072432;28;20460;-64
2021/04/17 03:33:57;;;;;;;8.30;5.90;;;;;;;;;;5072211;28;20465;-63
2021/04/17 03:36:24;;;;;;;9.30;5.80;;;;;;;;;;5072583;28;20446;-63
2021/04/17 03:38:50;;;;;;;13.00;6.63;;;;;;;;;;5072415;28;20454;-64
2021/04/17 03:41:17;;;;;;;10.87;6.43;;;;;;;;;;5072358;28;20467;-64
2021/04/17 03:43:44;;;;;;;11.87;6.90;;;;;;;;;;5072147;28;20477;-64
2021/04/17 03:46:11;;;;;;;9.33;5.87;;;;;;;;;;5072049;28;20485;-63
2021/04/17 03:48:37;;;;;;;9.43;6.63;;;;;;;;;;5072173;28;21014;-64
2021/04/17 03:51:04;;;;;;;16.33;6.70;;;;;;;;;;5072499;28;20445;-63
2021/04/17 03:53:30;;;;;;;9.27;5.90;;;;;;;;;;5072174;28;20471;-63
2021/04/17 03:55:57;;;;;;;10.17;6.50;;;;;;;;;;5071984;28;20944;-64
2021/04/17 03:58:24;;;;;;;16.97;7.93;;;;;;;;;;5072277;28;20456;-63
2021/04/17 04:00:51;;;;;;;14.50;6.80;;;;;;;;;;5071964;28;20492;-63
2021/04/17 04:03:18;;;;;;;13.07;7.60;;;;;;;;;;5072239;28;20485;-64
2021/04/17 04:05:44;;;;;;;10.77;7.07;;;;;;;;;;5071635;28;20447;-64
2021/04/17 04:08:11;;;;;;;12.07;6.13;;;;;;;;;;5072470;28;20456;-63
2021/04/17 04:10:38;;;;;;;11.37;7.30;;;;;;;;;;5072088;28;20455;-64
2021/04/17 04:13:04;;;;;;;12.60;6.80;;;;;;;;;;5072108;28;20446;-64
2021/04/17 04:15:31;;;;;;;8.70;6.17;;;;;;;;;;5071259;28;21065;-63
2021/04/17 04:17:58;;;;;;;14.97;6.90;;;;;;;;;;5072053;28;20462;-64
2021/04/17 04:20:25;;;;;;;11.10;7.30;;;;;;;;;;5071899;28;20498;-64
2021/04/17 04:22:51;;;;;;;12.30;6.63;;;;;;;;;;5071648;28;20451;-64
2021/04/17 04:25:18;;;;;;;15.17;7.23;;;;;;;;;;5071557;28;20464;-63
2021/04/17 04:27:44;;;;;;;14.03;6.50;;;;;;;;;;5071560;28;20481;-64
2021/04/17 04:30:11;;;;;;;9.63;6.70;;;;;;;;;;5072119;28;20791;-64
2021/04/17 04:32:38;;;;;;;10.23;6.47;;;;;;;;;;5072168;28;20450;-63
2021/04/17 04:35:07;;;;;;;12.73;6.73;;;;;;;;;;5072455;28;20478;-63
2021/04/17 04:37:33;;;;;;;10.53;6.83;;;;;;;;;;5071402;28;20437;-63
2021/04/17 04:40:00;;;;;;;11.27;6.93;;;;;;;;;;5072433;28;20529;-63
2021/04/17 04:42:26;;;;;;;11.33;6.77;;;;;;;;;;5072779;28;20843;-63
2021/04/17 04:44:53;;;;;;;11.27;7.70;;;;;;;;;;5072033;28;20488;-62
2021/04/17 04:47:20;;;;;;;14.60;7.70;;;;;;;;;;5072413;28;20492;-63
2021/04/17 04:49:46;;;;;;;13.10;7.80;;;;;;;;;;5074535;28;20566;-63
2021/04/17 04:52:14;;;;;;;10.90;6.97;;;;;;;;;;5073030;28;20963;-63
2021/04/17 04:54:40;;;;;;;10.90;6.43;;;;;;;;;;5072285;28;20465;-63
2021/04/17 04:57:07;;;;;;;9.83;6.87;;;;;;;;;;5071817;28;20449;-64
2021/04/17 04:59:34;;;;;;;11.60;6.63;;;;;;;;;;5072078;28;20460;-62
2021/04/17 05:02:02;;;;;;;14.40;7.07;;;;;;;;;;5072862;28;20457;-65
2021/04/17 05:04:28;;;;;;;14.77;7.13;;;;;;;;;;5071996;28;20466;-62
2021/04/17 05:06:55;;;;;;;11.97;6.73;;;;;;;;;;5072153;28;20509;-62
2021/04/17 05:09:22;;;;;;;11.97;7.07;;;;;;;;;;5071982;28;20452;-63
2021/04/17 05:11:49;;;;;;;12.40;7.47;;;;;;;;;;5072482;28;20444;-64
2021/04/17 05:14:15;;;;;;;11.30;6.73;;;;;;;;;;5071797;28;20848;-63
2021/04/17 05:16:42;;;;;;;14.03;6.90;;;;;;;;;;5071949;28;20452;-63
2021/04/17 05:19:08;;;;;;;12.93;6.73;;;;;;;;;;5072119;28;20457;-63
2021/04/17 05:21:35;;;;;;;13.13;7.53;;;;;;;;;;5071834;28;20446;-63
2021/04/17 05:24:02;;;;;;;11.53;7.10;;;;;;;;;;5071658;28;20862;-63
2021/04/17 05:26:29;;;;;;;9.57;6.70;;;;;;;;;;5072295;28;20536;-63
2021/04/17 05:28:56;;;;;;;11.10;6.63;;;;;;;;;;5072132;28;20469;-63
2021/04/17 05:31:23;;;;;;;13.73;7.10;;;;;;;;;;5071388;28;20819;-63
2021/04/17 05:33:49;;;;;;;9.17;6.90;;;;;;;;;;5070795;28;20714;-63
2021/04/17 05:36:16;;;;;;;10.10;6.73;;;;;;;;;;5074381;28;20454;-63
2021/04/17 05:38:42;;;;;;;9.60;7.33;;;;;;;;;;5074813;28;20854;-63
2021/04/17 05:41:09;;;;;;;16.43;7.97;;;;;;;;;;5074757;28;20467;-63
2021/04/17 05:43:36;;;;;;;11.10;7.00;;;;;;;;;;5074474;28;20469;-63
2021/04/17 05:46:03;;;;;;;11.70;7.17;;;;;;;;;;5074160;28;20447;-63
2021/04/17 05:48:29;;;;;;;11.23;7.03;;;;;;;;;;5074642;28;20461;-63
2021/04/17 05:50:57;;;;;;;11.97;6.57;;;;;;;;;;5074368;28;20459;-63
2021/04/17 05:53:24;;;;;;;11.37;7.20;;;;;;;;;;5074251;28;20477;-63
2021/04/17 05:55:50;;;;;;;11.53;7.07;;;;;;;;;;5073965;28;20504;-63
2021/04/17 05:58:17;;;;;;;18.33;7.60;;;;;;;;;;5074578;28;20441;-63
2021/04/17 06:00:44;;;;;;;15.17;8.13;;;;;;;;;;5074291;28;20448;-63
2021/04/17 06:03:11;;;;;;;12.70;7.33;;;;;;;;;;5074354;28;20504;-63
2021/04/17 06:05:37;;;;;;;15.60;8.53;;;;;;;;;;5073787;28;20460;-63
2021/04/17 06:08:05;;;;;;;12.47;8.37;;;;;;;;;;5074230;28;21015;-63
2021/04/17 06:10:31;;;;;;;11.47;7.10;;;;;;;;;;5074601;28;20446;-63
2021/04/17 06:12:58;;;;;;;11.00;7.27;;;;;;;;;;5073947;28;20554;-63
2021/04/17 06:15:24;;;;;;;11.63;7.70;;;;;;;;;;5073998;28;20516;-63
2021/04/17 06:17:52;;;;;;;17.00;7.70;;;;;;;;;;5073846;28;21006;-63
2021/04/17 06:20:18;;;;;;;14.57;7.90;;;;;;;;;;5074010;28;20798;-63
2021/04/17 06:22:45;;;;;;;11.70;7.03;;;;;;;;;;5074267;28;20440;-63
2021/04/17 06:25:12;;;;;;;11.33;8.00;;;;;;;;;;5074004;28;20463;-63
2021/04/17 06:27:38;;;;;;;10.40;6.73;;;;;;;;;;5073915;28;20850;-63
2021/04/17 06:30:06;;;;;;;16.37;7.63;;;;;;;;;;5073731;28;20946;-63
2021/04/17 06:32:32;;;;;;;14.93;7.47;;;;;;;;;;5073910;28;20452;-63
2021/04/17 06:35:00;;;;;;;12.70;7.23;;;;;;;;;;5073155;28;20988;-63
2021/04/17 06:37:26;;;;;;;12.67;6.83;;;;;;;;;;5073808;28;20443;-63
2021/04/17 06:39:53;;;;;;;15.03;7.67;;;;;;;;;;5073570;28;20455;-63
2021/04/17 06:42:20;;;;;;;12.30;6.87;;;;;;;;;;5073490;28;20971;-63
2021/04/17 06:44:47;;;;;;;10.77;6.77;;;;;;;;;;5072944;28;20528;-62
2021/04/17 06:47:15;;;;;;;12.13;6.20;;;;;;;;;;5072305;28;20476;-63
2021/04/17 06:49:42;;;;;;;10.07;6.60;;;;;;;;;;5073361;28;20455;-63
2021/04/17 06:52:11;;;;;;;10.90;6.37;;;;;;;;;;5073666;28;20448;-63
2021/04/17 06:54:38;;;;;;;10.83;6.00;;;;;;;;;;5073129;28;20470;-63
2021/04/17 06:57:05;;;;;;;12.57;6.17;;;;;;;;;;5073329;28;20443;-64
2021/04/17 06:59:32;;;;;;;16.00;7.00;;;;;;;;;;5073574;28;20462;-63
2021/04/17 07:01:59;;;;;;;11.73;6.93;;;;;;;;;;5073059;28;20474;-63
2021/04/17 07:04:25;;;;;;;11.87;6.80;;;;;;;;;;5073071;28;20467;-63
2021/04/17 07:06:52;;;;;;;10.90;6.07;;;;;;;;;;5072928;28;20573;-63
2021/04/17 07:09:20;;;;;;;11.53;6.63;;;;;;;;;;5073613;28;20203;-63
2021/04/17 07:11:47;;;;;;;11.33;6.43;;;;;;;;;;5073125;28;20210;-63
2021/04/17 07:14:14;;;;;;;13.03;6.27;;;;;;;;;;5072878;28;20478;-62
2021/04/17 07:16:57;;;;;;;10.27;6.27;;;;;;;;;;5072727;28;20530;-63
2021/04/17 07:19:24;;;;;;;11.90;5.63;;;;;;;;;;5073232;28;20455;-63
2021/04/17 07:21:51;;;;;;;10.77;5.67;;;;;;;;;;5072963;28;20216;-64
2021/04/17 07:24:25;;;;;;;11.53;5.97;;;;;;;;;;5072305;28;20233;-64
2021/04/17 07:26:51;;;;;;;9.97;5.63;;;;;;;;;;5072955;28;20225;-64
2021/04/17 07:29:18;;;;;;;11.50;5.10;;;;;;;;;;5072621;28;20215;-64
2021/04/17 07:31:49;;;;;;;10.17;5.93;;;;;;;;;;5072843;28;20256;-64
2021/04/17 07:34:17;;;;;;;10.17;5.57;;;;;;;;;;5072352;28;20391;-64
2021/04/17 07:36:48;;;;;;;8.50;5.20;;;;;;;;;;5072812;28;20214;-64
2021/04/17 07:39:32;;;;;;;9.93;5.00;;;;;;;;;;5072468;28;20218;-64
2021/04/17 07:41:59;;;;;;;7.83;5.47;;;;;;;;;;5072539;28;20219;-64
2021/04/17 07:44:30;;;;;;;9.90;6.07;;;;;;;;;;5072198;28;20227;-64
2021/04/17 07:46:57;;;;;;;9.13;5.87;;;;;;;;;;5072856;28;20565;-64
2021/04/17 07:49:24;;;;;;;8.80;5.03;;;;;;;;;;5073134;28;20207;-64
2021/04/17 07:51:57;;;;;;;10.23;6.40;;;;;;;;;;5072417;28;20267;-64
2021/04/17 07:54:23;;;;;;;13.70;6.23;;;;;;;;;;5071942;28;20235;-64
2021/04/17 07:56:51;;;;;;;15.50;6.03;;;;;;;;;;5071835;28;20201;-64
2021/04/17 07:59:20;;;;;;;8.53;6.10;;;;;;;;;;5072256;28;20232;-64
2021/04/17 08:01:46;;;;;;;12.40;6.10;;;;;;;;;;5071935;28;20585;-64
2021/04/17 08:04:13;;;;;;;12.00;5.57;;;;;;;;;;5071912;28;20300;-64
2021/04/17 08:06:40;;;;;;;9.17;6.23;;;;;;;;;;5071863;28;20707;-64
2021/04/17 08:09:07;;;;;;;9.87;7.27;;;;;;;;;;5072604;28;20565;-64
2021/04/17 08:11:34;;;;;;;12.80;5.53;;;;;;;;;;5072418;28;20567;-64
2021/04/17 08:14:02;;;;;;;9.50;6.23;;;;;;;;;;5071978;28;20235;-64
2021/04/17 08:16:28;;;;;;;8.23;5.53;;;;;;;;;;5071935;28;20297;-64
2021/04/17 08:18:55;;;;;;;9.53;5.40;;;;;;;;;;5071055;28;20299;-64
2021/04/17 08:21:22;;;;;;;10.47;5.90;;;;;;;;;;5070337;28;20216;-64
2021/04/17 08:23:50;;;;;;;11.47;5.33;;;;;;;;;;5071839;28;20229;-64
2021/04/17 08:26:16;;;;;;;9.03;4.90;;;;;;;;;;5071540;28;20208;-64
2021/04/17 08:28:44;;;;;;;8.63;4.70;;;;;;;;;;5072134;28;20231;-64
2021/04/17 08:31:25;;;;;;;12.50;5.43;;;;;;;;;;5072017;28;20213;-64
2021/04/17 08:34:11;;;;;;;6.80;4.43;;;;;;;;;;5071895;28;20236;-63
2021/04/17 08:36:39;;;;;;;11.33;4.33;;;;;;;;;;5065616;28;20206;-63
2021/04/17 08:39:06;;;;;;;7.90;4.83;;;;;;;;;;5067620;28;20204;-63
2021/04/17 08:41:42;;;;;;;6.33;4.50;;;;;;;;;;5071283;28;20701;-63
2021/04/17 08:44:24;;;;;;;7.57;4.27;;;;;;;;;;5071684;28;20247;-63
2021/04/17 08:46:52;;;;;;;10.93;4.10;;;;;;;;;;5071112;28;20221;-63
2021/04/17 08:49:22;;;;;;;9.80;4.70;;;;;;;;;;5070568;28;20204;-63
2021/04/17 08:51:48;;;;;;;12.67;6.40;;;;;;;;;;5071550;28;20205;-63
2021/04/17 08:54:18;;;;;;;10.20;4.27;;;;;;;;;;5071120;28;20236;-63
2021/04/17 08:56:57;;;;;;;7.73;4.80;;;;;;;;;;5071089;28;20890;-63
2021/04/17 08:59:26;;;;;;;8.50;3.60;;;;;;;;;;5071273;28;20669;-62
2021/04/17 09:01:54;;;;;;;10.13;4.00;;;;;;;;;;5071309;28;20212;-62
2021/04/17 09:04:22;;;;;;;43.00;24.30;;;;;;;;;;5071180;28;20229;-63
2021/04/17 09:06:50;;;;;;;7.47;4.23;;;;;;;;;;5071201;28;20256;-63
2021/04/17 09:09:30;;;;;;;10.13;3.87;;;;;;;;;;5070977;28;20213;-64
2021/04/17 09:12:14;;;;;;;7.70;3.53;;;;;;;;;;5074172;28;20205;-64
2021/04/17 09:14:51;;;;;;;13.03;3.80;;;;;;;;;;5074446;28;20233;-63
2021/04/17 09:17:32;;;;;;;10.37;3.40;;;;;;;;;;5075082;28;20200;-62
2021/04/17 09:20:00;;;;;;;7.80;3.37;;;;;;;;;;5073101;28;20205;-63
2021/04/17 09:22:45;;;;;;;7.80;3.70;;;;;;;;;;5075039;28;20300;-62
2021/04/17 09:25:12;;;;;;;9.07;3.37;;;;;;;;;;5074383;28;20756;-63
2021/04/17 09:27:40;;;;;;;8.63;3.67;;;;;;;;;;5074728;28;20220;-63
2021/04/17 09:30:08;;;;;;;7.03;3.10;;;;;;;;;;5074566;28;20213;-63
2021/04/17 09:32:35;;;;;;;4.23;3.30;;;;;;;;;;5074759;28;20209;-63
2021/04/17 09:35:11;;;;;;;6.20;3.20;;;;;;;;;;5074425;28;20221;-63
2021/04/17 09:37:38;;;;;;;7.23;3.70;;;;;;;;;;5074587;28;20201;-63
2021/04/17 09:40:05;;;;;;;6.63;3.23;;;;;;;;;;5057841;28;20741;-63
2021/04/17 09:42:33;;;;;;;8.07;3.80;;;;;;;;;;5054278;28;20201;-65
2021/04/17 09:45:00;;;;;;;9.53;4.07;;;;;;;;;;5054078;28;20230;-61
2021/04/17 09:47:28;;;;;;;8.03;3.97;;;;;;;;;;5054219;28;20226;-64
2021/04/17 09:49:55;;;;;;;10.10;4.43;;;;;;;;;;5053936;28;20206;-65
2021/04/17 09:52:23;;;;;;;7.23;3.90;;;;;;;;;;5054320;28;20212;-63
2021/04/17 09:54:57;;;;;;;7.00;4.03;;;;;;;;;;5053578;28;20233;-62
2021/04/17 09:57:25;;;;;;;6.20;3.80;;;;;;;;;;5054544;28;20206;-70
2021/04/17 09:59:52;;;;;;;5.50;3.37;;;;;;;;;;5053678;28;20209;-66
2021/04/17 10:02:19;;;;;;;6.07;4.07;;;;;;;;;;5066124;28;20677;-65
2021/04/17 10:04:50;;;;;;;9.37;4.50;;;;;;;;;;5058640;28;20318;-68
2021/04/17 10:07:16;;;;;;;6.43;3.70;;;;;;;;;;5052043;28;20266;-65
2021/04/17 10:09:57;;;;;;;8.57;3.53;;;;;;;;;;5053074;28;20208;-66
2021/04/17 10:12:24;;;;;;;8.00;3.83;;;;;;;;;;5054036;28;20207;-66
2021/04/17 10:14:51;;;;;;;8.80;3.80;;;;;;;;;;5053996;28;20225;-67
2021/04/17 10:17:18;;;;;;;6.73;3.80;;;;;;;;;;5053381;28;20395;-65
2021/04/17 10:19:44;;;;;;;6.30;3.77;;;;;;;;;;5053185;28;20230;-65
2021/04/17 10:22:12;;;;;;;8.10;3.87;;;;;;;;;;5053181;28;20218;-67
2021/04/17 10:24:40;;;;;;;7.90;4.03;;;;;;;;;;5053622;28;20275;-68
2021/04/17 10:27:09;;;;;;;11.10;4.47;;;;;;;;;;5053359;28;20728;-67
2021/04/17 10:29:39;;;;;;;7.20;3.80;;;;;;;;;;5053075;28;20731;-65
2021/04/17 10:32:07;;;;;;;9.40;4.20;;;;;;;;;;5053611;28;20335;-66
2021/04/17 10:34:33;;;;;;;6.63;3.93;;;;;;;;;;5052782;28;20638;-66
2021/04/17 10:37:01;;;;;;;6.53;3.90;;;;;;;;;;5053741;28;20213;-66
2021/04/17 10:39:28;;;;;;;8.40;4.20;;;;;;;;;;5053686;28;20263;-67
2021/04/17 10:42:01;;;;;;;7.17;3.50;;;;;;;;;;5053514;28;20221;-65
2021/04/17 10:44:30;;;;;;;10.23;4.07;;;;;;;;;;5053870;28;20227;-65
2021/04/17 10:46:57;;;;;;;5.60;3.80;;;;;;;;;;5055112;28;20233;-68
2021/04/17 10:49:28;;;;;;;6.80;4.23;;;;;;;;;;5054512;28;20677;-65
2021/04/17 10:51:54;;;;;;;7.77;4.07;;;;;;;;;;5052947;28;20579;-65
2021/04/17 10:54:21;;;;;;;9.07;5.10;;;;;;;;;;5053286;28;20231;-64
2021/04/17 10:57:01;;;;;;;9.20;4.60;;;;;;;;;;5052960;28;20202;-64
2021/04/17 10:59:28;;;;;;;9.17;4.83;;;;;;;;;;5053000;28;20207;-64
2021/04/17 11:01:55;;;;;;;6.07;3.83;;;;;;;;;;5053108;28;20206;-64
2021/04/17 11:04:22;;;;;;;8.70;4.33;;;;;;;;;;5053153;28;20652;-66
2021/04/17 11:06:50;;;;;;;6.13;3.97;;;;;;;;;;5053031;28;20223;-66
2021/04/17 11:09:18;;;;;;;5.87;4.33;;;;;;;;;;5052803;28;20309;-65
2021/04/17 11:11:51;;;;;;;7.13;4.50;;;;;;;;;;5052792;28;20211;-63
2021/04/17 11:14:20;;;;;;;7.73;3.67;;;;;;;;;;5052615;28;20226;-62
2021/04/17 11:16:50;;;;;;;5.77;3.77;;;;;;;;;;5053605;28;20310;-63
2021/04/17 11:19:24;;;;;;;8.17;3.70;;;;;;;;;;5052884;28;20206;-63
2021/04/17 11:22:07;;;;;;;5.10;3.60;;;;;;;;;;5052811;28;20215;-62
2021/04/17 11:24:33;;;;;;;5.37;2.67;;;;;;;;;;5052470;28;20284;-62
2021/04/17 11:27:00;;;;;;;4.23;2.80;;;;;;;;;;5053266;28;20590;-63
2021/04/17 11:29:27;;;;;;;5.80;3.00;;;;;;;;;;5052784;28;20666;-62
2021/04/17 11:31:54;;;;;;;6.60;2.57;;;;;;;;;;5051834;28;20212;-63
2021/04/17 11:34:21;;;;;;;4.87;2.67;;;;;;;;;;5052591;28;20272;-63
2021/04/17 11:36:47;;;;;;;4.00;2.70;;;;;;;;;;5052188;28;20211;-62
2021/04/17 11:39:15;;;;;;;3.17;2.40;;;;;;;;;;5052143;28;20210;-62
2021/04/17 11:41:41;;;;;;;3.47;2.23;;;;;;;;;;5051703;28;20679;-61
2021/04/17 11:44:08;;;;;;;5.37;2.57;;;;;;;;;;5052008;28;20275;-62
2021/04/17 11:46:36;;;;;;;6.00;2.87;;;;;;;;;;5052043;28;20210;-62
2021/04/17 11:49:04;;;;;;;7.33;2.90;;;;;;;;;;5051937;28;20206;-63
2021/04/17 11:51:30;;;;;;;6.10;3.03;;;;;;;;;;5051855;28;20210;-63
2021/04/17 11:53:57;;;;;;;6.57;3.13;;;;;;;;;;5051863;28;20286;-63
2021/04/17 11:56:24;;;;;;;6.87;2.87;;;;;;;;;;5051912;28;20210;-63
2021/04/17 11:58:50;;;;;;;5.83;3.00;;;;;;;;;;5051797;28;20203;-65
2021/04/17 12:01:18;;;;;;;6.70;3.17;;;;;;;;;;5051154;28;20216;-62
2021/04/17 12:03:45;;;;;;;5.30;3.10;;;;;;;;;;5052109;28;20230;-61
2021/04/17 12:06:13;;;;;;;6.03;2.70;;;;;;;;;;5051292;28;20255;-61
2021/04/17 12:08:39;;;;;;;7.63;2.67;;;;;;;;;;5051875;28;20267;-61
2021/04/17 12:11:06;;;;;;;5.90;2.93;;;;;;;;;;5051287;28;20210;-60
2021/04/17 12:13:33;;;;;;;5.00;3.00;;;;;;;;;;5051387;28;20233;-62
2021/04/17 12:15:59;;;;;;;11.03;3.43;;;;;;;;;;5051597;28;20207;-65
2021/04/17 12:18:26;;;;;;;7.13;2.90;;;;;;;;;;5051477;28;20685;-70
2021/04/17 12:20:53;;;;;;;6.27;3.23;;;;;;;;;;5051052;28;20202;-68
2021/04/17 12:23:20;;;;;;;7.17;3.17;;;;;;;;;;5051487;28;20202;-67
2021/04/17 12:25:47;;;;;;;7.00;3.27;;;;;;;;;;5051853;28;20212;-66
2021/04/17 12:28:13;;;;;;;8.63;3.40;;;;;;;;;;5051665;28;20247;-63
2021/04/17 12:30:40;;;;;;;5.13;3.00;;;;;;;;;;5051299;28;20626;-65
2021/04/17 12:33:07;;;;;;;5.23;2.83;;;;;;;;;;5055825;28;20729;-67
2021/04/17 12:35:34;;;;;;;6.17;3.17;;;;;;;;;;5062077;28;20213;-67
2021/04/17 12:38:00;;;;;;;8.67;3.20;;;;;;;;;;5050246;28;20296;-68
2021/04/17 12:40:28;;;;;;;6.47;3.13;;;;;;;;;;5052050;28;20209;-68
2021/04/17 12:42:54;;;;;;;4.10;2.80;;;;;;;;;;5052825;28;20201;-63
2021/04/17 12:45:21;;;;;;;3.77;2.90;;;;;;;;;;5056895;28;20232;-63
2021/04/17 12:47:48;;;;;;;4.90;2.83;;;;;;;;;;5055237;28;20221;-64
2021/04/17 12:50:15;;;;;;;4.73;2.97;;;;;;;;;;5054579;28;20686;-63
2021/04/17 12:52:41;;;;;;;6.03;2.87;;;;;;;;;;5055151;28;20777;-62
2021/04/17 12:55:09;;;;;;;6.33;3.30;;;;;;;;;;5054997;28;20227;-65
2021/04/17 12:57:36;;;;;;;8.53;3.23;;;;;;;;;;5055252;28;20203;-66
2021/04/17 13:00:03;;;;;;;7.00;2.63;;;;;;;;;;5055026;28;20206;-66
2021/04/17 13:02:30;;;;;;;6.50;3.13;;;;;;;;;;5055133;28;20411;-66
2021/04/17 13:04:56;;;;;;;5.00;3.43;;;;;;;;;;5066944;28;20232;-64
2021/04/17 13:07:23;;;;;;;4.90;3.10;;;;;;;;;;5075164;28;20230;-64
2021/04/17 13:09:49;;;;;;;5.17;3.10;;;;;;;;;;5074772;28;20207;-65
2021/04/17 13:12:16;;;;;;;6.30;2.83;;;;;;;;;;5075062;28;20217;-63
2021/04/17 13:14:43;;;;;;;6.23;2.83;;;;;;;;;;5074858;28;20228;-64
2021/04/17 13:17:10;;;;;;;4.97;3.03;;;;;;;;;;5074742;28;20208;-63
2021/04/17 13:19:36;;;;;;;5.03;2.83;;;;;;;;;;5075012;28;20203;-64
2021/04/17 13:22:03;;;;;;;9.13;3.33;;;;;;;;;;5075049;28;20207;-64
2021/04/17 13:24:29;;;;;;;5.33;2.93;;;;;;;;;;5075362;28;20231;-64
2021/04/17 13:26:56;;;;;;;5.30;2.67;;;;;;;;;;5074419;28;20674;-63
2021/04/17 13:29:22;;;;;;;6.97;3.07;;;;;;;;;;5074892;28;20691;-64
2021/04/17 13:31:50;;;;;;;4.60;2.77;;;;;;;;;;5074320;28;20216;-63
2021/04/17 13:34:16;;;;;;;6.33;2.90;;;;;;;;;;5074759;28;20293;-63
2021/04/17 13:36:43;;;;;;;6.07;3.20;;;;;;;;;;5075951;28;20211;-63
2021/04/17 13:39:11;;;;;;;6.90;3.10;;;;;;;;;;5075318;28;20639;-64
2021/04/17 13:41:38;;;;;;;4.20;2.73;;;;;;;;;;5074640;28;20211;-65
2021/04/17 13:44:04;;;;;;;5.67;3.00;;;;;;;;;;5074447;28;20230;-65
2021/04/17 13:46:31;;;;;;;5.67;2.83;;;;;;;;;;5075181;28;20679;-65
2021/04/17 13:48:58;;;;;;;5.70;2.40;;;;;;;;;;5074790;28;20698;-65
2021/04/17 13:51:25;;;;;;;6.27;3.50;;;;;;;;;;5074438;28;20911;-66
2021/04/17 13:53:51;;;;;;;7.17;3.20;;;;;;;;;;5074229;28;20222;-65
2021/04/17 13:56:18;;;;;;;5.73;3.00;;;;;;;;;;5073476;28;20211;-64
2021/04/17 13:58:45;;;;;;;4.10;2.90;;;;;;;;;;5074571;28;20204;-65
2021/04/17 14:01:11;;;;;;;4.90;3.30;;;;;;;;;;5073930;28;20222;-65
2021/04/17 14:03:38;;;;;;;4.63;2.60;;;;;;;;;;5074759;28;20291;-64
2021/04/17 14:06:06;;;;;;;6.80;3.17;;;;;;;;;;5074533;28;20262;-64
2021/04/17 14:08:32;;;;;;;9.30;3.13;;;;;;;;;;5074179;28;20273;-64
2021/04/17 14:10:59;;;;;;;4.40;2.77;;;;;;;;;;5073878;28;20209;-64
2021/04/17 14:13:25;;;;;;;4.53;3.00;;;;;;;;;;5073689;28;20227;-65
2021/04/17 14:15:52;;;;;;;4.80;3.10;;;;;;;;;;5074049;28;20212;-65
2021/04/17 14:18:19;;;;;;;4.67;2.83;;;;;;;;;;5074063;28;20220;-62
2021/04/17 14:20:45;;;;;;;7.57;2.87;;;;;;;;;;5073575;28;20200;-60
2021/04/17 14:23:13;;;;;;;7.20;3.13;;;;;;;;;;5073814;28;20588;-61
2021/04/17 14:25:40;;;;;;;7.03;2.87;;;;;;;;;;5073454;28;20220;-62
2021/04/17 14:28:06;;;;;;;5.03;3.10;;;;;;;;;;5073580;28;20316;-62
2021/04/17 14:30:33;;;;;;;7.40;3.33;;;;;;;;;;5073415;28;20212;-60
2021/04/17 14:33:00;;;;;;;3.60;2.87;;;;;;;;;;5074010;28;20212;-59
2021/04/17 14:35:26;;;;;;;8.40;3.20;;;;;;;;;;5073565;28;20691;-59
2021/04/17 14:37:53;;;;;;;8.23;3.40;;;;;;;;;;5073957;28;20215;-58
2021/04/17 14:40:20;;;;;;;5.47;3.17;;;;;;;;;;5073919;28;20585;-61